Time,TemperatureF,DewpointF,PressureIn,WindDirection,WindDirectionDegrees,WindSpeedMPH,WindSpeedGustMPH,Humidity,HourlyPrecipIn,Conditions,Clouds,dailyrainin,SolarRadiationWatts/m^2,SoftwareType,DateUTC
2013-11-02 00:04:00,48.0,38.0,-100.00,NW,310,4.0,7.0,68,0.00,,,0.30,0.000000,,2013-11-02 04:04:00,
2013-11-02 00:44:00,45.0,37.0,-100.00,East,82,0.0,8.0,72,0.00,,,0.25,0.000000,,2013-11-02 04:44:00,
2013-11-02 00:54:00,45.0,37.0,-100.00,East,82,0.0,8.0,72,0.00,,,0.25,0.000000,,2013-11-02 04:54:00,
2013-11-02 01:04:00,45.0,37.0,-100.00,East,82,0.0,8.0,72,0.00,,,0.25,0.000000,,2013-11-02 05:04:00,
2013-11-02 01:42:00,44.0,37.0,-100.00,NE,53,1.0,4.0,77,0.00,,,0.20,0.000000,,2013-11-02 05:42:00,
2013-11-02 01:52:00,44.0,37.0,-100.00,NE,53,1.0,4.0,77,0.00,,,0.20,0.000000,,2013-11-02 05:52:00,
2013-11-02 02:02:00,44.0,37.0,-100.00,NE,53,1.0,4.0,77,0.00,,,0.20,0.000000,,2013-11-02 06:02:00,
2013-11-02 02:43:00,43.0,37.0,-100.00,NNW,334,0.0,3.0,80,0.00,,,0.18,0.000000,,2013-11-02 06:43:00,
2013-11-02 02:52:00,43.0,37.0,-100.00,NNW,334,0.0,3.0,80,0.00,,,0.18,0.000000,,2013-11-02 06:52:00,
2013-11-02 03:03:00,43.0,37.0,-100.00,NNW,334,0.0,3.0,80,0.00,,,0.18,0.000000,,2013-11-02 07:03:00,
2013-11-02 03:42:00,41.0,37.0,-100.00,WNW,294,0.0,0.0,85,0.00,,,0.12,0.000000,,2013-11-02 07:42:00,
2013-11-02 03:52:00,41.0,37.0,-100.00,WNW,294,0.0,0.0,85,0.00,,,0.12,0.000000,,2013-11-02 07:52:00,
2013-11-02 04:02:00,41.0,37.0,-100.00,WNW,294,0.0,0.0,85,0.00,,,0.12,0.000000,,2013-11-02 08:02:00,
2013-11-02 04:42:00,41.0,37.0,-100.00,WNW,286,0.0,0.0,87,0.00,,,0.10,0.000000,,2013-11-02 08:42:00,
2013-11-02 04:52:00,41.0,37.0,-100.00,WNW,286,0.0,0.0,87,0.00,,,0.10,0.000000,,2013-11-02 08:52:00,
2013-11-02 05:02:00,41.0,37.0,-100.00,WNW,286,0.0,0.0,87,0.00,,,0.10,0.000000,,2013-11-02 09:02:00,
2013-11-02 05:43:00,41.0,37.0,-100.00,West,280,0.0,0.0,86,0.00,,,0.10,0.000000,,2013-11-02 09:43:00,
2013-11-02 05:53:00,41.0,37.0,-100.00,West,280,0.0,0.0,86,0.00,,,0.10,0.000000,,2013-11-02 09:53:00,
2013-11-02 06:03:00,41.0,37.0,-100.00,West,280,0.0,0.0,86,0.00,,,0.10,0.000000,,2013-11-02 10:03:00,
2013-11-02 06:43:00,42.0,38.0,-100.00,North,356,0.0,0.0,87,0.00,,,0.07,0.000000,,2013-11-02 10:43:00,
2013-11-02 06:53:00,42.0,38.0,-100.00,North,356,0.0,0.0,87,0.00,,,0.07,0.000000,,2013-11-02 10:53:00,
2013-11-02 07:02:00,42.0,38.0,-100.00,North,356,0.0,0.0,87,0.00,,,0.07,0.000000,,2013-11-02 11:02:00,
2013-11-02 07:42:00,41.0,38.0,-100.00,ESE,121,0.0,4.0,89,0.00,,,0.06,0.000000,,2013-11-02 11:42:00,
2013-11-02 07:52:00,41.0,38.0,-100.00,ESE,121,0.0,4.0,89,0.00,,,0.06,0.000000,,2013-11-02 11:52:00,
2013-11-02 08:02:00,41.0,38.0,-100.00,ESE,121,0.0,4.0,89,0.00,,,0.06,0.000000,,2013-11-02 12:02:00,
2013-11-02 08:42:00,43.0,38.0,-100.00,NW,322,1.0,4.0,84,0.00,,,0.04,4.000000,,2013-11-02 12:42:00,
2013-11-02 08:52:00,43.0,38.0,-100.00,NW,322,1.0,4.0,84,0.00,,,0.04,4.000000,,2013-11-02 12:52:00,
2013-11-02 09:02:00,43.0,38.0,-100.00,NW,322,1.0,4.0,84,0.00,,,0.04,4.000000,,2013-11-02 13:02:00,
2013-11-02 09:42:00,45.0,42.0,-100.00,North,4,1.0,4.0,88,0.00,,,0.00,51.000000,,2013-11-02 13:42:00,
2013-11-02 09:52:00,45.0,42.0,-100.00,North,4,1.0,4.0,88,0.00,,,0.00,51.000000,,2013-11-02 13:52:00,
2013-11-02 10:02:00,45.0,42.0,-100.00,North,4,1.0,4.0,88,0.00,,,0.00,51.000000,,2013-11-02 14:02:00,
2013-11-02 10:42:00,47.0,43.0,-100.00,WNW,294,1.0,3.0,86,0.00,,,0.00,35.000000,,2013-11-02 14:42:00,
2013-11-02 10:52:00,47.0,43.0,-100.00,WNW,294,1.0,3.0,86,0.00,,,0.00,35.000000,,2013-11-02 14:52:00,
2013-11-02 11:02:00,47.0,43.0,-100.00,WNW,294,1.0,3.0,86,0.00,,,0.00,35.000000,,2013-11-02 15:02:00,
2013-11-02 11:43:00,49.0,44.0,-100.00,WNW,301,3.0,5.0,82,0.00,,,0.00,87.000000,,2013-11-02 15:43:00,
2013-11-02 11:53:00,49.0,44.0,-100.00,WNW,301,3.0,5.0,82,0.00,,,0.00,87.000000,,2013-11-02 15:53:00,
2013-11-02 12:03:00,49.0,44.0,-100.00,WNW,301,3.0,5.0,82,0.00,,,0.00,87.000000,,2013-11-02 16:03:00,
2013-11-02 12:43:00,52.0,41.0,-100.00,West,263,3.0,10.0,67,0.00,,,0.00,212.000000,,2013-11-02 16:43:00,
2013-11-02 12:54:00,52.0,41.0,-100.00,West,263,3.0,10.0,67,0.00,,,0.00,212.000000,,2013-11-02 16:54:00,
2013-11-02 13:03:00,52.0,41.0,-100.00,West,263,3.0,10.0,67,0.00,,,0.00,212.000000,,2013-11-02 17:03:00,
2013-11-02 13:43:00,53.0,38.0,-100.00,NW,304,4.0,12.0,56,0.00,,,0.00,205.000000,,2013-11-02 17:43:00,
2013-11-02 13:53:00,53.0,38.0,-100.00,NW,304,4.0,12.0,56,0.00,,,0.00,205.000000,,2013-11-02 17:53:00,
2013-11-02 14:03:00,53.0,38.0,-100.00,NW,304,4.0,12.0,56,0.00,,,0.00,205.000000,,2013-11-02 18:03:00,
2013-11-02 14:42:00,52.0,36.0,-100.00,WNW,286,5.0,11.0,54,0.00,,,0.00,157.000000,,2013-11-02 18:42:00,
2013-11-02 14:53:00,52.0,36.0,-100.00,WNW,286,5.0,11.0,54,0.00,,,0.00,157.000000,,2013-11-02 18:53:00,
2013-11-02 15:02:00,52.0,36.0,-100.00,WNW,286,5.0,11.0,54,0.00,,,0.00,157.000000,,2013-11-02 19:02:00,
2013-11-02 15:42:00,50.0,34.0,-100.00,NW,323,4.0,10.0,55,0.00,,,0.00,84.000000,,2013-11-02 19:42:00,
2013-11-02 15:52:00,50.0,34.0,-100.00,NW,323,4.0,10.0,55,0.00,,,0.00,84.000000,,2013-11-02 19:52:00,
2013-11-02 16:02:00,50.0,34.0,-100.00,NW,323,4.0,10.0,55,0.00,,,0.00,84.000000,,2013-11-02 20:02:00,
2013-11-02 16:43:00,51.0,38.0,-100.00,NW,308,3.0,8.0,62,0.00,,,0.00,59.000000,,2013-11-02 20:43:00,
2013-11-02 16:53:00,51.0,38.0,-100.00,NW,308,3.0,8.0,62,0.00,,,0.00,59.000000,,2013-11-02 20:53:00,
2013-11-02 17:02:00,51.0,38.0,-100.00,NW,308,3.0,8.0,62,0.00,,,0.00,59.000000,,2013-11-02 21:02:00,
2013-11-02 17:44:00,49.0,38.0,-100.00,West,280,3.0,10.0,65,0.00,,,0.00,48.000000,,2013-11-02 21:44:00,
2013-11-02 17:54:00,49.0,38.0,-100.00,West,280,3.0,10.0,65,0.00,,,0.00,48.000000,,2013-11-02 21:54:00,
2013-11-02 18:03:00,49.0,38.0,-100.00,West,280,3.0,10.0,65,0.00,,,0.00,48.000000,,2013-11-02 22:03:00,
2013-11-02 18:44:00,47.0,36.0,-100.00,WNW,298,5.0,11.0,66,0.00,,,0.00,25.000000,,2013-11-02 22:44:00,
2013-11-02 18:54:00,47.0,36.0,-100.00,WNW,298,5.0,11.0,66,0.00,,,0.00,25.000000,,2013-11-02 22:54:00,
2013-11-02 19:02:00,47.0,36.0,-100.00,WNW,298,5.0,11.0,66,0.00,,,0.00,25.000000,,2013-11-02 23:02:00,
2013-11-02 19:42:00,46.0,39.0,-100.00,WNW,293,3.0,10.0,75,0.00,,,0.00,0.000000,,2013-11-02 23:42:00,
2013-11-02 19:52:00,46.0,39.0,-100.00,WNW,293,3.0,10.0,75,0.00,,,0.00,0.000000,,2013-11-02 23:52:00,
2013-11-02 20:02:00,46.0,39.0,-100.00,WNW,293,3.0,10.0,75,0.00,,,0.00,0.000000,,2013-11-03 00:02:00,
2013-11-02 20:42:00,45.0,39.0,-100.00,West,280,4.0,9.0,78,0.00,,,0.00,0.000000,,2013-11-03 00:42:00,
2013-11-02 20:52:00,45.0,39.0,-100.00,West,280,4.0,9.0,78,0.00,,,0.00,0.000000,,2013-11-03 00:52:00,
2013-11-02 21:02:00,45.0,39.0,-100.00,West,280,4.0,9.0,78,0.00,,,0.00,0.000000,,2013-11-03 01:02:00,
2013-11-02 21:42:00,44.0,40.0,-100.00,WNW,299,4.0,10.0,87,0.00,,,0.00,0.000000,,2013-11-03 01:42:00,
2013-11-02 21:52:00,44.0,40.0,-100.00,WNW,299,4.0,10.0,87,0.00,,,0.00,0.000000,,2013-11-03 01:52:00,
2013-11-02 22:02:00,44.0,40.0,-100.00,WNW,299,4.0,10.0,87,0.00,,,0.00,0.000000,,2013-11-03 02:02:00,
2013-11-02 22:43:00,43.0,40.0,-100.00,WNW,299,3.0,9.0,90,0.01,,,0.01,0.000000,,2013-11-03 02:43:00,
2013-11-02 22:52:00,43.0,40.0,-100.00,WNW,299,3.0,9.0,90,0.01,,,0.01,0.000000,,2013-11-03 02:52:00,
2013-11-02 23:02:00,43.0,40.0,-100.00,WNW,299,3.0,9.0,90,0.01,,,0.01,0.000000,,2013-11-03 03:02:00,
2013-11-02 23:45:00,42.0,40.0,-100.00,WNW,301,4.0,8.0,93,0.00,,,0.01,0.000000,,2013-11-03 03:45:00,
2013-11-02 23:54:00,42.0,40.0,-100.00,WNW,301,4.0,8.0,93,0.00,,,0.01,0.000000,,2013-11-03 03:54:00,